createdAt,value
2017-09-25T00:00:56.673Z,22.27
2017-09-25T00:03:25.006Z,21.77
2017-09-25T00:05:53.286Z,20.20
2017-09-25T00:08:21.657Z,23.10
2017-09-25T00:10:49.943Z,22.67
2017-09-25T00:13:19.001Z,19.13
2017-09-25T00:15:48.121Z,19.83
2017-09-25T00:18:16.500Z,20.63
2017-09-25T00:20:44.781Z,20.47
2017-09-25T00:23:13.101Z,20.50
2017-09-25T00:25:41.434Z,21.07
2017-09-25T00:28:09.842Z,19.17
2017-09-25T00:30:39.006Z,20.70
2017-09-25T00:33:07.286Z,21.10
2017-09-25T00:35:35.671Z,20.53
2017-09-25T00:38:03.951Z,21.60
2017-09-25T00:40:32.275Z,22.70
2017-09-25T00:43:00.609Z,21.10
2017-09-25T00:45:30.392Z,21.30
2017-09-25T00:47:58.694Z,22.80
2017-09-25T00:50:26.979Z,22.20
2017-09-25T00:53:07.230Z,21.20
2017-09-25T00:55:47.322Z,22.20
2017-09-25T00:58:16.400Z,20.23
2017-09-25T01:00:56.574Z,20.77
2017-09-25T01:06:26.830Z,21.80
2017-09-25T01:08:55.154Z,22.43
2017-09-25T01:11:23.414Z,19.97
2017-09-25T01:13:51.712Z,21.47
2017-09-25T01:16:20.016Z,21.47
2017-09-25T01:18:49.057Z,19.07
2017-09-25T01:21:17.347Z,22.50
2017-09-25T01:23:45.642Z,20.33
2017-09-25T01:26:13.915Z,22.73
2017-09-25T01:28:42.212Z,20.80
2017-09-25T01:31:10.507Z,22.60
2017-09-25T01:33:38.868Z,21.00
2017-09-25T01:36:07.247Z,20.93
2017-09-25T01:38:36.300Z,22.87
2017-09-25T01:41:04.585Z,19.83
2017-09-25T01:43:32.861Z,23.60
2017-09-25T01:46:01.244Z,21.80
2017-09-25T01:48:29.517Z,21.40
2017-09-25T01:50:57.798Z,21.87
2017-09-25T01:53:26.073Z,23.20
2017-09-25T01:55:54.345Z,23.10
2017-09-25T01:58:22.747Z,22.70
2017-09-25T02:00:51.028Z,21.40
2017-09-25T02:03:19.316Z,22.23
2017-09-25T02:05:47.601Z,23.00
2017-09-25T02:08:16.675Z,21.30
2017-09-25T02:10:44.966Z,22.70
2017-09-25T02:13:13.245Z,23.00
2017-09-25T02:15:41.608Z,24.20
2017-09-25T02:18:09.900Z,22.87
2017-09-25T02:20:38.262Z,22.17
2017-09-25T02:23:06.581Z,24.03
2017-09-25T02:25:34.861Z,20.47
2017-09-25T02:28:03.140Z,23.40
2017-09-25T02:30:31.446Z,21.40
2017-09-25T02:32:59.765Z,21.67
2017-09-25T02:35:28.143Z,22.73
2017-09-25T02:37:56.512Z,22.80
2017-09-25T02:40:24.802Z,20.50
2017-09-25T02:42:53.108Z,20.60
2017-09-25T02:45:21.444Z,23.10
2017-09-25T02:47:49.827Z,22.50
2017-09-25T02:50:18.105Z,21.47
2017-09-25T02:52:46.366Z,20.67
2017-09-25T02:55:14.667Z,22.63
2017-09-25T02:57:43.021Z,21.87
2017-09-25T03:00:11.328Z,20.97
2017-09-25T03:02:39.620Z,24.27
2017-09-25T03:05:08.780Z,22.30
2017-09-25T03:07:37.177Z,22.57
2017-09-25T03:10:05.449Z,20.43
2017-09-25T03:12:33.761Z,21.40
2017-09-25T03:15:02.828Z,23.40
2017-09-25T03:17:32.613Z,21.13
2017-09-25T03:20:01.010Z,21.23
2017-09-25T03:22:29.296Z,20.90
2017-09-25T03:24:57.677Z,21.43
2017-09-25T03:27:25.940Z,21.63
2017-09-25T03:29:54.221Z,22.50
2017-09-25T03:32:22.608Z,19.80
2017-09-25T03:34:50.876Z,20.90
2017-09-25T03:37:19.268Z,23.67
2017-09-25T03:39:47.643Z,21.53
2017-09-25T03:42:16.432Z,20.57
2017-09-25T03:44:44.724Z,21.07
2017-09-25T03:47:12.999Z,22.20
2017-09-25T03:49:42.083Z,20.30
2017-09-25T03:52:10.374Z,21.13
2017-09-25T03:54:39.400Z,21.60
2017-09-25T03:57:07.718Z,21.97
2017-09-25T03:59:36.112Z,20.77
2017-09-25T04:02:04.430Z,19.23
2017-09-25T04:04:32.736Z,22.43
2017-09-25T04:07:01.046Z,20.63
2017-09-25T04:09:29.332Z,20.80
2017-09-25T04:11:57.600Z,21.23
2017-09-25T04:14:25.908Z,21.20
2017-09-25T04:16:54.228Z,20.10
2017-09-25T04:19:22.712Z,23.20
2017-09-25T04:21:50.993Z,22.20
2017-09-25T04:24:19.276Z,20.73
2017-09-25T04:26:47.659Z,20.90
2017-09-25T04:29:16.697Z,20.63
2017-09-25T04:31:44.971Z,21.40
2017-09-25T04:34:13.293Z,21.50
2017-09-25T04:36:41.568Z,21.50
2017-09-25T04:39:09.893Z,22.57
2017-09-25T04:41:38.956Z,21.30
2017-09-25T04:44:07.226Z,20.17
2017-09-25T04:46:35.525Z,21.63
2017-09-25T04:49:04.572Z,21.20
2017-09-25T04:51:32.895Z,21.00
2017-09-25T04:54:01.249Z,20.33
2017-09-25T04:56:29.632Z,19.20
2017-09-25T04:58:58.023Z,21.03
2017-09-25T05:01:26.406Z,20.70
2017-09-25T05:03:54.717Z,20.50
2017-09-25T05:06:23.050Z,17.70
2017-09-25T05:08:51.329Z,21.97
2017-09-25T05:11:19.625Z,20.90
2017-09-25T05:13:47.988Z,21.43
2017-09-25T05:16:16.315Z,20.63
2017-09-25T05:18:44.588Z,19.60
2017-09-25T05:21:12.868Z,20.07
2017-09-25T05:23:41.168Z,19.57
2017-09-25T05:26:09.454Z,20.57
2017-09-25T05:28:37.757Z,20.20
2017-09-25T05:31:06.065Z,20.90
2017-09-25T05:33:35.128Z,19.80
2017-09-25T05:36:03.400Z,19.90
2017-09-25T05:38:31.677Z,18.63
2017-09-25T05:41:00.276Z,19.77
2017-09-25T05:43:28.537Z,20.50
2017-09-25T05:45:56.861Z,19.93
2017-09-25T05:48:25.158Z,21.53
2017-09-25T05:50:53.429Z,19.73
2017-09-25T05:53:21.745Z,21.60
2017-09-25T05:55:51.532Z,22.80
2017-09-25T05:58:19.809Z,21.73
2017-09-25T06:00:48.136Z,20.37
2017-09-25T06:03:17.177Z,21.73
2017-09-25T06:05:45.500Z,21.07
2017-09-25T06:08:13.864Z,20.93
2017-09-25T06:10:42.142Z,20.70
2017-09-25T06:13:10.523Z,21.60
2017-09-25T06:15:38.779Z,22.03
2017-09-25T06:18:07.137Z,19.83
2017-09-25T06:20:35.413Z,21.70
2017-09-25T06:23:03.693Z,19.70
2017-09-25T06:25:31.981Z,35.17
2017-09-25T06:28:00.265Z,20.17
2017-09-25T06:30:28.581Z,20.50
2017-09-25T06:32:56.945Z,20.40
2017-09-25T06:35:25.223Z,22.40
2017-09-25T06:37:53.518Z,19.90
2017-09-25T06:40:22.589Z,20.00
2017-09-25T06:42:50.899Z,20.30
2017-09-25T06:45:19.971Z,20.73
2017-09-25T06:47:48.359Z,19.60
2017-09-25T06:50:16.735Z,21.00
2017-09-25T06:52:45.123Z,20.50
2017-09-25T06:55:13.433Z,20.70
2017-09-25T06:57:41.752Z,21.97
2017-09-25T07:00:10.032Z,21.17
2017-09-25T07:02:38.331Z,23.07
2017-09-25T07:05:06.596Z,22.40
2017-09-25T07:07:35.680Z,22.23
2017-09-25T07:10:03.963Z,19.80
2017-09-25T07:12:32.338Z,22.80
2017-09-25T07:15:00.621Z,21.83
2017-09-25T07:17:28.889Z,22.00
2017-09-25T07:19:57.993Z,22.07
2017-09-25T07:22:26.265Z,22.37
2017-09-25T07:24:54.658Z,21.40
2017-09-25T07:27:23.030Z,22.27
2017-09-25T07:29:51.319Z,22.83
2017-09-25T07:32:19.702Z,21.10
2017-09-25T07:34:48.749Z,21.53
2017-09-25T07:37:17.053Z,20.70
2017-09-25T07:39:45.432Z,19.97
2017-09-25T07:42:13.827Z,20.47
2017-09-25T07:44:42.094Z,20.20
2017-09-25T07:47:10.569Z,21.00
2017-09-25T07:49:38.865Z,20.27
2017-09-25T07:52:07.172Z,25.37
2017-09-25T07:54:36.321Z,21.33
2017-09-25T07:57:04.596Z,20.57
2017-09-25T07:59:32.900Z,18.70
2017-09-25T08:02:01.981Z,20.40
2017-09-25T08:04:30.241Z,19.53
2017-09-25T08:06:58.626Z,24.20
2017-09-25T08:09:26.902Z,22.17
2017-09-25T08:11:55.201Z,19.77
2017-09-25T08:14:23.561Z,40.70
2017-09-25T08:16:51.885Z,19.50
2017-09-25T08:19:20.941Z,21.30
2017-09-25T08:21:49.321Z,21.20
2017-09-25T08:24:17.612Z,20.50
2017-09-25T08:26:45.886Z,20.10
2017-09-25T08:29:14.264Z,20.03
2017-09-25T08:31:42.629Z,18.80
2017-09-25T08:34:11.021Z,22.00
2017-09-25T08:36:39.296Z,20.23
2017-09-25T08:39:07.571Z,19.70
2017-09-25T08:41:35.861Z,20.10
2017-09-25T08:44:04.900Z,19.10
2017-09-25T08:46:33.209Z,18.90
2017-09-25T08:49:01.484Z,19.10
2017-09-25T08:51:29.866Z,19.40
2017-09-25T08:53:58.144Z,18.30
2017-09-25T08:56:26.533Z,19.23
2017-09-25T08:58:54.812Z,16.90
2017-09-25T09:01:24.602Z,17.40
2017-09-25T09:03:52.903Z,17.63
2017-09-25T09:06:21.269Z,16.97
2017-09-25T09:08:49.675Z,19.27
2017-09-25T09:11:17.980Z,18.37
2017-09-25T09:13:46.256Z,19.17
2017-09-25T09:16:14.553Z,18.50
2017-09-25T09:18:42.833Z,17.80
2017-09-25T09:21:11.234Z,17.07
2017-09-25T09:23:39.507Z,17.63
2017-09-25T09:26:07.781Z,20.60
2017-09-25T09:28:36.071Z,19.37
2017-09-25T09:31:04.446Z,17.70
2017-09-25T09:33:32.762Z,20.13
2017-09-25T09:36:01.823Z,24.77
2017-09-25T09:38:30.098Z,18.67
2017-09-25T09:40:58.481Z,17.73
2017-09-25T09:43:26.740Z,19.50
2017-09-25T09:45:55.132Z,18.37
2017-09-25T09:48:23.399Z,18.80
2017-09-25T09:50:51.685Z,18.30
2017-09-25T09:53:20.067Z,20.77
2017-09-25T09:55:48.347Z,19.60
2017-09-25T09:58:16.664Z,19.13
2017-09-25T10:00:44.955Z,18.90
2017-09-25T10:03:13.270Z,18.30
2017-09-25T10:05:41.561Z,17.77
2017-09-25T10:08:09.851Z,19.87
2017-09-25T10:10:38.217Z,19.00
2017-09-25T10:13:06.589Z,18.00
2017-09-25T10:15:34.934Z,17.80
2017-09-25T10:18:03.189Z,19.63
2017-09-25T10:20:31.490Z,21.80
2017-09-25T10:22:59.777Z,22.03
2017-09-25T10:25:28.387Z,22.50
2017-09-25T10:27:56.816Z,21.27
2017-09-25T10:30:25.162Z,20.57
2017-09-25T10:32:53.472Z,23.83
2017-09-25T10:35:21.746Z,22.47
2017-09-25T10:37:50.089Z,23.00
2017-09-25T10:40:18.405Z,21.40
2017-09-25T10:42:46.749Z,23.07
2017-09-25T10:45:15.073Z,23.70
2017-09-25T10:47:43.386Z,22.93
2017-09-25T10:50:11.652Z,22.93
2017-09-25T10:52:40.042Z,23.90
2017-09-25T10:55:08.439Z,21.00
2017-09-25T10:57:36.757Z,23.70
2017-09-25T11:00:05.078Z,22.67
2017-09-25T11:02:33.474Z,24.40
2017-09-25T11:05:01.858Z,21.97
2017-09-25T11:07:30.138Z,23.63
2017-09-25T11:09:58.449Z,22.20
2017-09-25T11:12:26.721Z,23.00
2017-09-25T11:14:55.062Z,23.43
2017-09-25T11:17:23.336Z,21.30
2017-09-25T11:19:51.616Z,20.73
2017-09-25T11:22:19.942Z,20.97
2017-09-25T11:24:48.210Z,19.70
2017-09-25T11:27:16.550Z,20.10
2017-09-25T11:29:44.824Z,18.80
2017-09-25T11:32:13.163Z,18.07
2017-09-25T11:34:41.476Z,19.00
2017-09-25T11:37:09.778Z,19.73
2017-09-25T11:39:38.841Z,18.87
2017-09-25T11:42:07.121Z,17.23
2017-09-25T11:44:35.506Z,17.20
2017-09-25T11:47:03.793Z,16.57
2017-09-25T11:49:32.161Z,17.10
2017-09-25T11:52:00.439Z,15.53
2017-09-25T11:54:29.491Z,16.03
2017-09-25T11:56:57.793Z,14.77
2017-09-25T11:59:26.069Z,15.17
2017-09-25T12:01:54.481Z,15.57
2017-09-25T12:04:22.861Z,15.77
2017-09-25T12:06:51.166Z,14.50
2017-09-25T12:09:19.443Z,14.70
2017-09-25T12:11:47.736Z,13.17
2017-09-25T12:14:16.058Z,15.23
2017-09-25T12:16:44.339Z,13.40
2017-09-25T12:19:12.653Z,13.10
2017-09-25T12:21:41.681Z,14.00
2017-09-25T12:24:10.094Z,16.07
2017-09-25T12:26:38.473Z,16.27
2017-09-25T12:29:06.748Z,12.13
2017-09-25T12:31:35.043Z,15.53
2017-09-25T12:34:04.113Z,13.63
2017-09-25T12:36:32.407Z,13.90
2017-09-25T12:39:00.682Z,12.70
2017-09-25T12:41:29.778Z,12.20
2017-09-25T12:43:58.056Z,14.20
2017-09-25T12:46:26.332Z,13.90
2017-09-25T12:48:54.805Z,13.40
2017-09-25T12:51:23.100Z,13.70
2017-09-25T12:53:51.386Z,13.50
2017-09-25T12:56:20.451Z,13.17
2017-09-25T12:58:48.754Z,13.17
2017-09-25T13:01:17.927Z,11.07
2017-09-25T13:03:46.205Z,12.90
2017-09-25T13:06:14.570Z,11.13
2017-09-25T13:08:42.877Z,11.27
2017-09-25T13:11:11.249Z,10.47
2017-09-25T13:13:39.629Z,11.20
2017-09-25T13:16:07.993Z,11.50
2017-09-25T13:18:36.286Z,12.07
2017-09-25T13:21:04.649Z,11.10
2017-09-25T13:23:33.044Z,10.50
2017-09-25T13:26:01.414Z,10.87
2017-09-25T13:28:29.738Z,11.13
2017-09-25T13:30:58.098Z,11.20
2017-09-25T13:33:27.138Z,12.17
2017-09-25T13:35:55.443Z,11.20
2017-09-25T13:38:23.716Z,11.03
2017-09-25T13:40:52.028Z,12.00
2017-09-25T13:43:21.090Z,11.27
2017-09-25T13:45:49.393Z,11.17
2017-09-25T13:48:18.441Z,11.07
2017-09-25T13:50:46.720Z,10.70
2017-09-25T13:53:15.029Z,10.33
2017-09-25T13:55:43.375Z,11.80
2017-09-25T13:58:11.669Z,11.60
2017-09-25T14:03:13.594Z,12.03
2017-09-25T14:05:41.930Z,11.17
2017-09-25T14:08:10.255Z,9.73
2017-09-25T14:10:39.287Z,11.83
2017-09-25T14:13:07.565Z,11.60
2017-09-25T14:15:35.866Z,10.60
2017-09-25T14:18:04.156Z,11.00
2017-09-25T14:20:33.229Z,10.90
2017-09-25T14:23:01.489Z,9.00
2017-09-25T14:25:29.812Z,9.90
2017-09-25T14:27:58.861Z,9.47
2017-09-25T14:30:27.139Z,8.90
2017-09-25T14:32:55.437Z,9.47
2017-09-25T14:35:23.721Z,8.57
2017-09-25T14:37:52.006Z,7.70
2017-09-25T14:40:20.281Z,8.87
2017-09-25T14:42:48.605Z,8.40
2017-09-25T14:45:16.943Z,7.70
2017-09-25T14:47:45.217Z,7.30
2017-09-25T14:50:13.492Z,8.03
2017-09-25T14:52:41.762Z,7.23
2017-09-25T14:55:10.050Z,7.63
2017-09-25T14:57:38.324Z,7.53
2017-09-25T15:00:06.651Z,7.73
2017-09-25T15:02:34.917Z,7.53
2017-09-25T15:05:03.185Z,6.80
2017-09-25T15:07:31.476Z,6.50
2017-09-25T15:09:59.765Z,7.53
2017-09-25T15:12:28.050Z,8.37
2017-09-25T15:14:56.308Z,7.90
2017-09-25T15:17:24.624Z,6.97
2017-09-25T15:19:52.904Z,8.07
2017-09-25T15:22:21.195Z,7.30
2017-09-25T15:24:49.468Z,7.13
2017-09-25T15:27:17.729Z,8.10
2017-09-25T15:29:46.105Z,6.80
2017-09-25T15:32:14.361Z,7.20
2017-09-25T15:34:42.669Z,8.93
2017-09-25T15:37:10.945Z,9.00
2017-09-25T15:39:39.221Z,8.63
2017-09-25T15:42:07.500Z,8.30
2017-09-25T15:44:35.777Z,8.97
2017-09-25T15:47:04.062Z,8.47
2017-09-25T15:49:32.429Z,9.70
2017-09-25T15:52:00.819Z,8.63
2017-09-25T15:54:29.084Z,9.33
2017-09-25T15:56:57.358Z,9.23
2017-09-25T15:59:25.650Z,8.80
2017-09-25T16:01:53.918Z,8.90
2017-09-25T16:04:22.202Z,8.70
2017-09-25T16:06:50.571Z,8.57
2017-09-25T16:09:18.885Z,9.07
2017-09-25T16:11:47.945Z,9.20
2017-09-25T16:14:16.224Z,8.97
2017-09-25T16:16:44.509Z,8.37
2017-09-25T16:19:12.770Z,8.03
2017-09-25T16:21:41.073Z,8.63
2017-09-25T16:24:09.351Z,9.50
2017-09-25T16:26:37.648Z,9.73
2017-09-25T16:29:06.717Z,8.67
2017-09-25T16:31:35.080Z,10.00
2017-09-25T16:34:03.458Z,11.13
2017-09-25T16:36:31.753Z,14.23
2017-09-25T16:39:00.045Z,8.37
2017-09-25T16:41:29.108Z,8.43
2017-09-25T16:43:57.436Z,9.00
2017-09-25T16:46:26.481Z,9.70
2017-09-25T16:48:54.863Z,12.43
2017-09-25T16:51:23.252Z,9.57
2017-09-25T16:53:51.517Z,9.43
2017-09-25T16:56:19.930Z,11.33
2017-09-25T16:58:48.203Z,10.63
2017-09-25T17:01:16.561Z,9.73
2017-09-25T17:03:44.840Z,9.20
2017-09-25T17:06:14.965Z,10.87
2017-09-25T17:08:44.082Z,9.10
2017-09-25T17:11:13.152Z,10.60
2017-09-25T17:13:41.525Z,11.70
2017-09-25T17:16:09.800Z,10.20
2017-09-25T17:18:38.127Z,12.07
2017-09-25T17:21:06.417Z,11.37
2017-09-25T17:23:34.748Z,11.03
2017-09-25T17:26:03.056Z,10.73
2017-09-25T17:28:32.127Z,11.73
2017-09-25T17:31:00.500Z,10.20
2017-09-25T17:33:29.547Z,12.53
2017-09-25T17:35:57.861Z,10.53
2017-09-25T17:38:26.341Z,11.87
2017-09-25T17:40:54.613Z,10.70
2017-09-25T17:43:22.910Z,11.17
2017-09-25T17:45:51.192Z,11.50
2017-09-25T17:48:19.560Z,11.20
2017-09-25T17:50:47.838Z,11.90
2017-09-25T17:53:16.161Z,10.97
2017-09-25T17:55:44.437Z,11.00
2017-09-25T17:58:13.589Z,10.23
2017-09-25T18:00:41.883Z,11.83
2017-09-25T18:03:10.236Z,13.13
2017-09-25T18:05:38.617Z,11.30
2017-09-25T18:08:07.007Z,12.70
2017-09-25T18:10:35.330Z,12.97
2017-09-25T18:13:03.646Z,11.03
2017-09-25T18:15:31.918Z,14.17
2017-09-25T18:18:00.321Z,11.20
2017-09-25T18:20:28.688Z,11.90
2017-09-25T18:22:56.976Z,10.90
2017-09-25T18:25:25.349Z,11.43
2017-09-25T18:27:53.656Z,12.60
2017-09-25T18:30:22.717Z,11.97
2017-09-25T18:32:51.005Z,12.40
2017-09-25T18:35:19.372Z,12.50
2017-09-25T18:37:47.667Z,11.57
2017-09-25T18:40:16.043Z,12.17
2017-09-25T18:42:44.422Z,10.90
2017-09-25T18:45:12.739Z,12.17
2017-09-25T18:47:41.081Z,11.27
2017-09-25T18:50:09.349Z,11.47
2017-09-25T18:52:37.726Z,11.53
2017-09-25T18:55:05.998Z,11.93
2017-09-25T18:57:34.385Z,11.57
2017-09-25T19:00:02.661Z,12.40
2017-09-25T19:02:30.999Z,11.60
2017-09-25T19:04:59.317Z,11.73
2017-09-25T19:07:27.694Z,10.80
2017-09-25T19:09:55.980Z,12.17
2017-09-25T19:12:24.260Z,11.90
2017-09-25T19:14:52.624Z,12.40
2017-09-25T19:17:21.001Z,12.60
2017-09-25T19:19:49.312Z,12.63
2017-09-25T19:22:18.357Z,12.30
2017-09-25T19:24:46.630Z,12.77
2017-09-25T19:27:14.929Z,13.17
2017-09-25T19:29:43.216Z,10.93
2017-09-25T19:32:11.503Z,12.23
2017-09-25T19:34:39.769Z,12.37
2017-09-25T19:37:08.142Z,14.17
2017-09-25T19:39:36.426Z,14.30
2017-09-25T19:42:05.518Z,12.37
2017-09-25T19:44:33.814Z,13.13
2017-09-25T19:47:02.082Z,14.60
2017-09-25T19:49:42.177Z,12.77
2017-09-25T19:52:10.668Z,12.87
2017-09-25T19:54:38.985Z,14.50
2017-09-25T19:57:07.696Z,12.67
2017-09-25T19:59:36.424Z,13.00
2017-09-25T20:02:04.690Z,12.47
2017-09-25T20:04:32.970Z,12.77
2017-09-25T20:07:01.254Z,11.80
2017-09-25T20:09:29.533Z,12.97
2017-09-25T20:11:58.427Z,12.40
2017-09-25T20:17:27.691Z,14.40
2017-09-25T20:19:55.958Z,12.07
2017-09-25T20:22:24.246Z,12.57
2017-09-25T20:24:52.629Z,13.20
2017-09-25T20:27:22.482Z,13.90
2017-09-25T20:29:50.764Z,12.27
2017-09-25T20:32:19.072Z,12.87
2017-09-25T20:34:49.148Z,14.03
2017-09-25T20:37:18.261Z,13.10
2017-09-25T20:42:29.043Z,13.17
2017-09-25T20:44:57.333Z,12.60
2017-09-25T20:47:25.614Z,11.43
2017-09-25T20:49:54.008Z,15.03
2017-09-25T20:52:22.306Z,13.37
2017-09-25T20:54:51.367Z,13.00
2017-09-25T20:57:19.662Z,14.53
2017-09-25T20:59:47.946Z,11.97
2017-09-25T21:02:16.255Z,12.10
2017-09-25T21:04:44.599Z,13.00
2017-09-25T21:07:12.987Z,13.33
2017-09-25T21:09:41.257Z,13.30
2017-09-25T21:12:10.353Z,12.90
2017-09-25T21:14:38.712Z,13.57
2017-09-25T21:17:06.984Z,12.93
2017-09-25T21:19:35.294Z,13.23
2017-09-25T21:22:04.344Z,11.83
2017-09-25T21:24:32.645Z,13.93
2017-09-25T21:27:06.511Z,12.47
2017-09-25T21:29:34.849Z,12.40
2017-09-25T21:32:03.881Z,13.37
2017-09-25T21:34:32.197Z,13.03
2017-09-25T21:37:00.581Z,12.40
2017-09-25T21:39:28.954Z,13.13
2017-09-25T21:41:57.254Z,12.23
2017-09-25T21:44:26.322Z,13.00
2017-09-25T21:46:54.661Z,12.43
2017-09-25T21:49:22.977Z,13.43
2017-09-25T21:51:51.362Z,13.53
2017-09-25T21:54:19.737Z,13.60
2017-09-25T21:56:48.138Z,12.87
2017-09-25T21:59:16.429Z,13.20
2017-09-25T22:01:45.490Z,13.30
2017-09-25T22:04:13.871Z,13.67
2017-09-25T22:06:42.165Z,12.60
2017-09-25T22:09:11.260Z,12.10
2017-09-25T22:11:39.568Z,12.63
2017-09-25T22:14:07.836Z,12.73
2017-09-25T22:16:36.141Z,12.20
2017-09-25T22:19:04.416Z,12.03
2017-09-25T22:21:32.871Z,12.73
2017-09-25T22:24:01.922Z,14.40
2017-09-25T22:26:30.201Z,12.27
2017-09-25T22:28:58.598Z,12.63
2017-09-25T22:31:27.778Z,14.07
2017-09-25T22:33:56.055Z,13.23
2017-09-25T22:36:24.776Z,12.23
2017-09-25T22:38:53.859Z,13.27
2017-09-25T22:41:22.126Z,13.30
2017-09-25T22:43:52.201Z,13.10
2017-09-25T22:46:20.530Z,12.67
2017-09-25T22:48:48.799Z,12.20
2017-09-25T22:51:17.100Z,13.97
2017-09-25T22:53:46.142Z,12.83
2017-09-25T22:56:14.454Z,12.67
2017-09-25T22:58:43.493Z,13.63
2017-09-25T23:01:11.914Z,13.33
2017-09-25T23:03:40.990Z,13.33
2017-09-25T23:06:09.262Z,13.97
2017-09-25T23:08:37.557Z,13.33
2017-09-25T23:11:08.189Z,13.30
2017-09-25T23:13:36.566Z,14.57
2017-09-25T23:16:04.843Z,13.03
2017-09-25T23:18:33.149Z,13.40
2017-09-25T23:21:02.190Z,13.47
2017-09-25T23:23:30.460Z,11.80
2017-09-25T23:25:58.773Z,12.80
2017-09-25T23:28:27.048Z,13.63
2017-09-25T23:30:55.342Z,14.40
2017-09-25T23:33:23.612Z,14.60
2017-09-25T23:35:51.986Z,14.07
2017-09-25T23:38:20.281Z,14.50
2017-09-25T23:40:48.644Z,14.67
2017-09-25T23:43:17.721Z,14.23
2017-09-25T23:45:45.992Z,15.33
2017-09-25T23:48:14.287Z,15.13
2017-09-25T23:50:42.660Z,14.57
2017-09-25T23:53:11.132Z,14.77
2017-09-25T23:55:39.416Z,14.97
2017-09-25T23:58:07.720Z,15.20
